Time;durP1;ratioP1;P1;durP2;ratioP2;P2;SDS_P1;SDS_P2;PMS_P1;PMS_P2;Temp;Humidity;BMP_temperature;BMP_pressure;BME280_temperature;BME280_humidity;BME280_pressure;Samples;Min_cycle;Max_cycle;Signal;HPM_P1;HPM_P2
2022/01/26 00:07:51;;;;;;;66.07;24.47;;;-0.70;99.90;;;;;;5050267;28;20621;-75
2022/01/26 00:10:17;;;;;;;62.23;23.17;;;-0.70;99.90;;;;;;5050539;28;20199;-74
2022/01/26 00:12:43;;;;;;;54.80;23.80;;;-0.60;99.90;;;;;;5050577;28;20187;-75
2022/01/26 00:15:09;;;;;;;68.60;23.63;;;-0.70;99.90;;;;;;5050005;28;20187;-75
2022/01/26 00:17:35;;;;;;;51.70;24.10;;;-0.60;99.90;;;;;;5050461;28;20183;-76
2022/01/26 00:20:04;;;;;;;41.90;23.03;;;-0.70;99.90;;;;;;5050583;28;20659;-75
2022/01/26 00:23:00;;;;;;;130.97;25.80;;;-0.50;99.90;;;;;;5051879;28;20186;-75
2022/01/26 00:28:08;;;;;;;47.57;25.50;;;-0.80;99.90;;;;;;5054107;28;20707;-76
2022/01/26 00:41:05;;;;;;;149.43;27.13;;;-0.70;99.90;;;;;;5053657;28;20171;-76
2022/01/26 00:43:30;;;;;;;50.00;24.93;;;-0.80;99.90;;;;;;5053717;28;20179;-76
2022/01/26 00:45:58;;;;;;;59.57;25.90;;;-0.70;99.90;;;;;;5053235;28;20199;-76
2022/01/26 00:48:25;;;;;;;121.80;28.50;;;-0.70;99.90;;;;;;5053566;28;20187;-75
2022/01/26 00:50:52;;;;;;;44.23;24.30;;;-0.70;99.90;;;;;;5053487;28;20182;-75
2022/01/26 00:53:27;;;;;;;46.07;25.50;;;-0.60;99.90;;;;;;5053664;28;20183;-75
2022/01/26 00:55:52;;;;;;;104.17;26.20;;;-0.40;99.90;;;;;;5052946;28;20769;-76
2022/01/26 00:58:18;;;;;;;55.53;26.47;;;-0.80;99.90;;;;;;5053517;28;20179;-76
2022/01/26 01:00:44;;;;;;;90.67;29.13;;;-0.80;99.90;;;;;;5053516;28;20511;-75
2022/01/26 01:03:09;;;;;;;176.73;30.13;;;-0.70;99.90;;;;;;5053295;28;20189;-75
2022/01/26 01:05:50;;;;;;;115.77;28.87;;;-0.70;99.90;;;;;;5052680;28;20191;-76
2022/01/26 01:08:19;;;;;;;71.97;27.13;;;-0.80;99.90;;;;;;5053376;28;20274;-76
2022/01/26 01:10:47;;;;;;;106.43;28.57;;;-1.00;99.90;;;;;;5053325;28;20175;-76
2022/01/26 01:13:17;;;;;;;73.13;25.80;;;-1.10;99.90;;;;;;5053119;28;20182;-76
2022/01/26 01:15:43;;;;;;;48.80;25.40;;;-1.00;99.90;;;;;;5052520;28;20207;-76
2022/01/26 01:18:20;;;;;;;58.07;24.93;;;-0.90;99.90;;;;;;5053042;28;20175;-76
2022/01/26 01:26:21;;;;;;;76.37;27.07;;;-0.80;99.90;;;;;;5052349;28;20211;-76
2022/01/26 01:31:18;;;;;;;46.63;24.90;;;-1.10;99.90;;;;;;5053059;28;20186;-77
2022/01/26 01:33:46;;;;;;;102.30;26.80;;;-1.00;99.90;;;;;;5052605;28;20217;-76
2022/01/26 01:36:12;;;;;;;50.37;26.97;;;-1.00;99.90;;;;;;5052249;28;20208;-76
2022/01/26 01:38:43;;;;;;;73.20;25.60;;;-0.90;99.90;;;;;;5052633;28;20178;-76
2022/01/26 01:41:09;;;;;;;156.03;30.37;;;-1.10;99.90;;;;;;5052664;28;20590;-76
2022/01/26 01:43:34;;;;;;;94.33;28.10;;;-1.20;99.90;;;;;;5052664;28;20179;-77
2022/01/26 01:46:01;;;;;;;170.80;29.20;;;-1.20;99.90;;;;;;5052052;28;20574;-76
2022/01/26 01:48:30;;;;;;;67.07;27.20;;;-1.30;99.90;;;;;;5052597;28;20620;-76
2022/01/26 01:50:58;;;;;;;71.13;26.73;;;-1.20;99.90;;;;;;5052540;28;20654;-76
2022/01/26 01:53:32;;;;;;;110.43;28.10;;;-1.10;99.90;;;;;;5052369;28;20194;-76
2022/01/26 01:55:59;;;;;;;117.40;29.20;;;-1.00;99.90;;;;;;5052031;28;20199;-77
2022/01/26 01:58:25;;;;;;;71.53;27.80;;;-1.20;99.90;;;;;;5052326;28;20198;-76
2022/01/26 02:00:51;;;;;;;77.70;29.03;;;-1.00;99.90;;;;;;5052048;28;20202;-77
2022/01/26 02:03:16;;;;;;;90.03;27.90;;;-1.00;99.90;;;;;;5052109;28;20186;-77
2022/01/26 02:05:42;;;;;;;73.43;27.67;;;-1.20;99.90;;;;;;5051489;28;20199;-77
2022/01/26 02:08:08;;;;;;;62.63;26.47;;;-1.00;99.90;;;;;;5052001;28;20220;-76
2022/01/26 02:10:34;;;;;;;87.67;28.53;;;-0.90;99.90;;;;;;5052263;28;20175;-76
2022/01/26 02:13:04;;;;;;;50.23;28.40;;;-0.80;99.90;;;;;;5052089;28;20268;-76
2022/01/26 02:15:39;;;;;;;55.80;27.90;;;-1.00;99.90;;;;;;5051475;28;20213;-76
2022/01/26 02:18:26;;;;;;;253.57;33.00;;;-0.80;99.90;;;;;;5052108;28;20237;-77
2022/01/26 02:57:00;;;;;;;274.67;33.30;;;-1.00;99.90;;;;;;5052573;28;20252;-77
2022/01/26 02:59:49;;;;;;;116.23;30.53;;;-1.00;99.90;;;;;;5052095;28;20225;-78
2022/01/26 03:02:53;;;;;;;218.90;33.60;;;-1.00;99.90;;;;;;5051956;28;20181;-77
2022/01/26 03:05:09;;;;;;;261.53;32.43;;;-0.80;99.90;;;;;;5047682;28;20210;-76
2022/01/26 03:10:05;;;;;;;228.80;31.90;;;-0.90;99.90;;;;;;5051328;28;20167;-77
2022/01/26 03:12:40;;;;;;;120.90;30.60;;;-0.90;99.90;;;;;;5051386;28;20531;-78
2022/01/26 03:15:15;;;;;;;225.27;32.13;;;-0.90;99.90;;;;;;5050908;28;20210;-77
2022/01/26 03:20:15;;;;;;;220.10;32.93;;;-0.90;99.90;;;;;;5051658;28;20168;-78
2022/01/26 03:28:19;;;;;;;104.93;28.83;;;-1.00;99.90;;;;;;5051588;28;20217;-78
2022/01/26 03:35:55;;;;;;;181.43;30.97;;;-0.80;99.90;;;;;;5050648;28;20621;-77
2022/01/26 03:38:45;;;;;;;203.00;30.40;;;-0.80;99.90;;;;;;5051314;28;20670;-77
2022/01/26 03:43:41;;;;;;;244.70;31.50;;;-0.70;99.90;;;;;;5051670;28;20171;-77
2022/01/26 03:46:07;;;;;;;148.73;30.37;;;-0.80;99.90;;;;;;5050985;28;20206;-77
2022/01/26 03:48:32;;;;;;;207.10;32.60;;;-0.80;99.90;;;;;;5051489;28;20195;-78
2022/01/26 03:50:59;;;;;;;127.90;30.17;;;-0.80;99.90;;;;;;5051300;28;20550;-77
2022/01/26 03:53:25;;;;;;;74.53;29.60;;;-0.80;99.90;;;;;;5051664;28;20178;-78
2022/01/26 03:55:50;;;;;;;160.17;31.33;;;-0.60;99.90;;;;;;5051006;28;20207;-78
2022/01/26 03:58:16;;;;;;;80.73;28.93;;;-0.50;99.90;;;;;;5055212;28;20175;-77
2022/01/26 04:00:41;;;;;;;82.43;30.63;;;-0.50;99.90;;;;;;5054816;28;20258;-78
2022/01/26 04:03:07;;;;;;;149.30;31.57;;;-0.40;99.90;;;;;;5054647;28;20183;-77
2022/01/26 04:05:32;;;;;;;73.27;29.07;;;-0.40;99.90;;;;;;5054502;28;20245;-78
2022/01/26 04:08:04;;;;;;;82.60;30.97;;;-0.40;99.90;;;;;;5054780;28;20218;-77
2022/01/26 04:11:03;;;;;;;59.60;28.47;;;-0.20;99.90;;;;;;5054669;28;20566;-77
2022/01/26 04:13:28;;;;;;;59.63;25.90;;;-0.30;99.90;;;;;;5054759;28;20179;-77
2022/01/26 04:15:54;;;;;;;67.13;27.83;;;-0.20;99.90;;;;;;5054098;28;20749;-77
2022/01/26 04:18:26;;;;;;;68.10;26.17;;;-0.20;99.90;;;;;;5054713;28;20256;-78
2022/01/26 04:20:55;;;;;;;59.83;26.77;;;-0.30;99.90;;;;;;5054657;28;20208;-76
2022/01/26 04:25:48;;;;;;;55.23;27.40;;;-0.20;99.90;;;;;;5153653;22;20254;-75
2022/01/26 04:28:21;;;;;;;59.77;27.37;;;-0.20;99.90;;;;;;5054169;28;20356;-75
2022/01/26 04:30:47;;;;;;;61.70;26.30;;;-0.20;99.90;;;;;;5054574;28;20187;-75
2022/01/26 04:33:13;;;;;;;58.07;27.47;;;-0.20;99.90;;;;;;5054310;28;20293;-75
2022/01/26 04:35:43;;;;;;;54.23;26.60;;;-0.30;99.90;;;;;;5053654;28;20199;-75
2022/01/26 04:38:21;;;;;;;59.60;28.10;;;-0.30;99.90;;;;;;5053012;28;20179;-75
2022/01/26 04:43:37;;;;;;;57.30;27.40;;;-0.40;99.90;;;;;;5022050;28;20175;-73
2022/01/26 04:46:03;;;;;;;56.30;27.67;;;-0.30;99.90;;;;;;5053365;28;20253;-73
2022/01/26 04:48:29;;;;;;;57.50;26.80;;;-0.40;99.90;;;;;;5053817;28;20644;-73
2022/01/26 04:50:54;;;;;;;59.20;26.43;;;-0.20;99.90;;;;;;5054091;28;20178;-73
2022/01/26 04:53:20;;;;;;;57.67;27.40;;;-0.20;99.90;;;;;;5053663;28;20547;-73
2022/01/26 04:55:46;;;;;;;53.37;26.73;;;-0.40;99.90;;;;;;5053114;28;20195;-73
2022/01/26 04:58:11;;;;;;;54.83;27.00;;;-0.30;99.90;;;;;;5053808;28;20180;-73
2022/01/26 05:00:37;;;;;;;56.63;25.07;;;-0.30;99.90;;;;;;5053754;28;20179;-74
2022/01/26 05:03:03;;;;;;;55.40;25.87;;;-0.20;99.90;;;;;;5053708;28;20509;-74
2022/01/26 05:05:28;;;;;;;53.37;25.80;;;-0.20;99.90;;;;;;5053520;28;20256;-74
2022/01/26 05:07:54;;;;;;;52.13;25.70;;;-0.10;99.90;;;;;;5052635;28;20203;-74
2022/01/26 05:10:19;;;;;;;47.00;24.50;;;-0.10;99.90;;;;;;5053888;28;20663;-74
2022/01/26 05:12:45;;;;;;;56.47;26.23;;;0.00;99.90;;;;;;5053745;28;20175;-74
2022/01/26 05:15:11;;;;;;;51.43;24.37;;;0.00;99.90;;;;;;5035297;28;20594;-74
2022/01/26 05:17:38;;;;;;;53.90;25.47;;;0.00;99.90;;;;;;5053470;28;20181;-74
2022/01/26 05:20:08;;;;;;;52.60;25.00;;;0.10;99.90;;;;;;5053795;28;20175;-74
2022/01/26 05:22:34;;;;;;;50.90;24.90;;;0.00;99.90;;;;;;5053433;28;20644;-73
2022/01/26 05:24:59;;;;;;;56.80;25.63;;;0.10;99.90;;;;;;5052639;28;20308;-74
2022/01/26 05:27:25;;;;;;;51.87;24.57;;;0.00;99.90;;;;;;5053442;28;20294;-74
2022/01/26 05:29:50;;;;;;;55.93;26.57;;;-0.10;99.90;;;;;;5053293;28;20218;-74
2022/01/26 05:32:16;;;;;;;47.57;24.27;;;-0.10;99.90;;;;;;5053270;28;20221;-74
2022/01/26 05:34:42;;;;;;;48.93;23.77;;;-0.10;99.90;;;;;;5052901;28;20195;-74
2022/01/26 05:37:07;;;;;;;50.30;24.67;;;0.00;99.90;;;;;;5053178;28;20727;-73
2022/01/26 05:39:33;;;;;;;52.10;25.20;;;0.00;99.90;;;;;;5053307;28;20178;-74
2022/01/26 05:42:03;;;;;;;52.83;25.03;;;0.00;99.90;;;;;;5053340;28;20175;-73
2022/01/26 05:44:29;;;;;;;48.73;24.10;;;0.00;99.90;;;;;;5052097;28;20179;-74
2022/01/26 05:46:55;;;;;;;45.60;23.70;;;0.00;99.90;;;;;;5052579;28;20226;-73
2022/01/26 05:49:20;;;;;;;51.30;24.90;;;-0.10;99.90;;;;;;5052785;28;20233;-73
2022/01/26 05:51:46;;;;;;;50.87;25.13;;;0.00;99.90;;;;;;5052943;28;20171;-73
2022/01/26 05:54:13;;;;;;;46.33;23.67;;;-0.10;99.90;;;;;;5052518;28;20512;-73
2022/01/26 05:56:41;;;;;;;48.07;24.97;;;-0.10;99.90;;;;;;5052385;28;20260;-75
2022/01/26 05:59:06;;;;;;;50.23;25.73;;;-0.20;99.90;;;;;;5052740;28;20175;-74
2022/01/26 06:01:32;;;;;;;44.73;24.07;;;-0.20;99.90;;;;;;5052473;28;20190;-73
2022/01/26 06:03:57;;;;;;;45.83;24.47;;;-0.30;99.90;;;;;;5052305;28;20163;-73
2022/01/26 06:06:23;;;;;;;46.10;23.40;;;-0.40;99.90;;;;;;5052179;28;20260;-74
2022/01/26 06:08:48;;;;;;;51.00;24.87;;;-0.30;99.90;;;;;;5052759;28;20167;-74
2022/01/26 06:11:14;;;;;;;45.33;24.20;;;-0.20;99.90;;;;;;5052599;28;20722;-75
2022/01/26 06:13:39;;;;;;;52.63;25.57;;;-0.20;99.90;;;;;;5052602;28;20198;-74
2022/01/26 06:16:05;;;;;;;50.93;24.20;;;-0.10;99.90;;;;;;5050562;28;20624;-72
2022/01/26 06:18:31;;;;;;;49.07;26.57;;;-0.20;99.90;;;;;;5052671;28;20221;-73
2022/01/26 06:20:56;;;;;;;44.00;23.67;;;-0.20;99.90;;;;;;5052168;28;20213;-73
2022/01/26 06:23:26;;;;;;;47.63;24.67;;;-0.10;99.90;;;;;;5052609;28;20179;-73
2022/01/26 06:25:57;;;;;;;50.07;24.23;;;-0.20;99.90;;;;;;5052516;28;20580;-73
2022/01/26 06:28:26;;;;;;;45.33;23.43;;;-0.30;99.90;;;;;;5052382;28;20211;-73
2022/01/26 06:31:03;;;;;;;47.13;23.57;;;-0.30;99.90;;;;;;5052850;28;20198;-73
2022/01/26 06:33:29;;;;;;;40.03;22.07;;;-0.30;99.90;;;;;;5047540;28;20178;-74
2022/01/26 06:35:57;;;;;;;40.90;22.20;;;-0.40;99.90;;;;;;5051241;28;20671;-71
2022/01/26 06:38:24;;;;;;;46.40;23.93;;;-0.30;99.90;;;;;;5052247;28;20167;-71
2022/01/26 06:40:51;;;;;;;44.70;24.33;;;-0.30;99.90;;;;;;5052070;28;20175;-71
2022/01/26 06:43:17;;;;;;;46.47;23.67;;;-0.10;99.90;;;;;;5051957;28;20210;-72
2022/01/26 06:45:53;;;;;;;43.17;22.83;;;-0.10;99.90;;;;;;5051281;28;20757;-72
2022/01/26 06:50:57;;;;;;;39.10;22.23;;;-0.20;99.90;;;;;;5051651;28;20628;-72
2022/01/26 06:53:22;;;;;;;42.53;23.27;;;-0.30;99.90;;;;;;5051312;28;20171;-72
2022/01/26 06:55:48;;;;;;;38.97;20.77;;;0.00;99.90;;;;;;5050941;28;20232;-72
2022/01/26 06:58:14;;;;;;;40.77;21.27;;;0.10;99.90;;;;;;5051278;28;20175;-72
2022/01/26 07:00:39;;;;;;;42.40;22.23;;;0.00;99.90;;;;;;5051494;28;20186;-72
2022/01/26 07:03:05;;;;;;;42.57;21.97;;;-0.10;99.90;;;;;;5050986;28;20625;-72
2022/01/26 07:05:30;;;;;;;42.40;22.13;;;0.10;99.90;;;;;;5050701;28;20195;-72
2022/01/26 07:07:56;;;;;;;42.77;21.23;;;-0.10;99.90;;;;;;5050993;28;20206;-72
2022/01/26 07:10:22;;;;;;;45.13;23.00;;;0.00;99.90;;;;;;5051259;28;20191;-72
2022/01/26 07:12:47;;;;;;;44.53;22.37;;;0.10;99.90;;;;;;5051776;28;20186;-72
2022/01/26 07:21:22;;;;;;;43.60;22.53;;;0.30;99.90;;;;;;5051710;28;20222;-72
2022/01/26 07:23:37;;;;;;;43.83;21.73;;;0.30;99.90;;;;;;5051404;28;20170;-72
2022/01/26 07:26:03;;;;;;;44.53;22.87;;;0.20;99.90;;;;;;5050802;28;20207;-72
2022/01/26 07:28:34;;;;;;;43.23;22.13;;;0.20;99.90;;;;;;5051557;28;20198;-73
2022/01/26 07:31:00;;;;;;;41.80;22.73;;;0.10;99.90;;;;;;5051876;28;20187;-72
2022/01/26 07:33:25;;;;;;;45.73;22.97;;;0.20;99.90;;;;;;5055881;28;20685;-72
2022/01/26 07:35:51;;;;;;;47.73;24.27;;;0.20;99.90;;;;;;5055080;28;20308;-72
2022/01/26 07:38:16;;;;;;;47.33;23.40;;;-0.30;99.90;;;;;;5055479;28;20182;-72
2022/01/26 07:40:42;;;;;;;41.23;23.20;;;-0.30;99.90;;;;;;5055378;28;20203;-72
2022/01/26 07:43:08;;;;;;;49.53;24.47;;;-0.30;99.90;;;;;;5055541;28;20175;-72
2022/01/26 07:45:33;;;;;;;47.93;23.97;;;0.00;99.90;;;;;;5054703;28;20195;-72
2022/01/26 07:47:59;;;;;;;49.63;24.17;;;0.00;99.90;;;;;;5055507;28;20215;-72
2022/01/26 07:50:24;;;;;;;49.13;23.63;;;0.10;99.90;;;;;;5055088;28;20175;-72
2022/01/26 07:52:50;;;;;;;50.67;24.47;;;-0.10;99.90;;;;;;5054698;28;20186;-72
2022/01/26 07:55:17;;;;;;;52.60;25.23;;;-0.10;99.90;;;;;;5054082;28;20191;-72
2022/01/26 07:57:47;;;;;;;51.93;26.87;;;-0.10;99.90;;;;;;5055023;28;20584;-72
2022/01/26 08:00:13;;;;;;;50.03;24.37;;;-0.10;99.90;;;;;;5055300;28;20542;-72
2022/01/26 08:02:39;;;;;;;48.60;24.27;;;-0.40;99.90;;;;;;5055463;28;20193;-72
2022/01/26 08:05:06;;;;;;;52.30;23.80;;;-0.10;99.90;;;;;;5054627;28;20195;-72
2022/01/26 08:07:31;;;;;;;44.90;23.23;;;0.00;99.90;;;;;;5054833;28;20651;-72
2022/01/26 08:09:57;;;;;;;42.67;22.43;;;0.10;99.90;;;;;;5055244;28;20179;-72
2022/01/26 08:12:22;;;;;;;44.07;22.27;;;0.00;99.90;;;;;;5054941;28;20175;-72
2022/01/26 08:14:48;;;;;;;43.47;22.40;;;0.10;99.90;;;;;;5054462;28;20195;-72
2022/01/26 08:17:16;;;;;;;43.40;21.63;;;0.30;99.90;;;;;;5054770;28;20193;-72
2022/01/26 08:19:42;;;;;;;46.73;22.90;;;0.20;99.90;;;;;;5054810;28;20187;-71
2022/01/26 08:22:08;;;;;;;41.43;20.93;;;0.40;99.90;;;;;;5054653;28;20175;-72
2022/01/26 08:24:34;;;;;;;43.83;23.00;;;0.30;99.90;;;;;;5054166;28;20643;-72
2022/01/26 08:27:07;;;;;;;46.23;22.53;;;0.30;99.90;;;;;;5054190;28;20684;-72
2022/01/26 08:29:40;;;;;;;42.27;23.13;;;0.20;99.90;;;;;;5054728;28;20206;-71
2022/01/26 08:32:06;;;;;;;47.43;24.20;;;-0.10;99.90;;;;;;5054377;28;20168;-71
2022/01/26 08:34:32;;;;;;;49.57;25.07;;;0.10;99.90;;;;;;5053856;28;20210;-72
2022/01/26 08:36:58;;;;;;;49.17;24.20;;;0.20;99.90;;;;;;5054399;28;20676;-72
2022/01/26 08:39:23;;;;;;;50.37;24.50;;;0.20;99.90;;;;;;5054368;28;20176;-74
2022/01/26 08:41:49;;;;;;;46.77;23.43;;;0.30;99.90;;;;;;5054182;28;20207;-71
2022/01/26 08:44:15;;;;;;;44.63;23.03;;;0.40;99.90;;;;;;5052949;28;20171;-72
2022/01/26 08:46:41;;;;;;;43.77;22.20;;;0.30;99.90;;;;;;5056237;28;20261;-72
2022/01/26 08:49:07;;;;;;;40.70;22.07;;;0.30;99.90;;;;;;5057346;28;20171;-73
2022/01/26 08:51:33;;;;;;;43.10;22.27;;;0.30;99.90;;;;;;5054266;28;20176;-71
2022/01/26 08:53:59;;;;;;;45.13;22.60;;;0.40;99.90;;;;;;5055154;28;20175;-72
2022/01/26 08:56:26;;;;;;;40.50;22.20;;;0.40;99.90;;;;;;5055351;28;20741;-73
2022/01/26 08:58:53;;;;;;;41.17;22.17;;;0.40;99.90;;;;;;5054326;28;20182;-72
2022/01/26 09:01:18;;;;;;;43.50;22.60;;;0.40;99.90;;;;;;5054569;28;20189;-71
2022/01/26 09:03:44;;;;;;;47.00;22.20;;;0.70;99.90;;;;;;5054460;28;20179;-73
2022/01/26 09:06:10;;;;;;;44.70;22.37;;;0.60;99.90;;;;;;5053457;28;20202;-73
2022/01/26 09:08:42;;;;;;;46.93;24.10;;;0.70;99.90;;;;;;5054884;28;20175;-74
2022/01/26 09:11:08;;;;;;;44.13;23.43;;;0.60;99.90;;;;;;5058115;28;20787;-73
2022/01/26 09:13:35;;;;;;;44.00;23.10;;;0.50;99.90;;;;;;5057800;28;20166;-71
2022/01/26 09:16:06;;;;;;;48.10;23.37;;;0.50;99.90;;;;;;5053807;28;20205;-72
2022/01/26 09:18:47;;;;;;;42.03;21.87;;;0.50;99.90;;;;;;5054433;28;20204;-73
2022/01/26 09:21:12;;;;;;;38.17;21.57;;;0.50;99.90;;;;;;5053619;28;20196;-73
2022/01/26 09:23:38;;;;;;;43.17;22.73;;;0.50;99.90;;;;;;5054927;28;20171;-74
2022/01/26 09:26:04;;;;;;;40.97;22.33;;;0.70;99.90;;;;;;5053156;28;20203;-72
2022/01/26 09:28:29;;;;;;;41.20;22.13;;;0.80;99.90;;;;;;5053929;28;20265;-73
2022/01/26 09:30:55;;;;;;;44.03;22.70;;;0.90;99.90;;;;;;5053424;28;20567;-73
2022/01/26 09:33:21;;;;;;;41.77;22.40;;;1.20;99.90;;;;;;5054874;28;20705;-74
2022/01/26 09:35:47;;;;;;;42.50;21.93;;;0.90;88.20;;;;;;5052975;28;20222;-74
2022/01/26 09:38:13;;;;;;;43.07;22.70;;;0.70;99.90;;;;;;5052585;28;20193;-71
2022/01/26 09:40:38;;;;;;;41.47;22.30;;;0.70;99.90;;;;;;5055047;28;20199;-73
2022/01/26 09:43:04;;;;;;;40.20;22.40;;;0.70;99.90;;;;;;5053887;28;20224;-73
2022/01/26 09:45:34;;;;;;;42.53;22.23;;;0.70;99.90;;;;;;5053122;28;20234;-74
2022/01/26 09:48:01;;;;;;;41.70;21.63;;;0.80;99.90;;;;;;5056415;28;20207;-72
2022/01/26 09:50:26;;;;;;;41.97;22.80;;;0.90;99.90;;;;;;5053308;28;20178;-72
2022/01/26 09:52:54;;;;;;;38.80;21.23;;;0.70;99.90;;;;;;5053444;28;20179;-72
2022/01/26 09:55:20;;;;;;;39.70;21.97;;;0.50;99.90;;;;;;5052345;28;20191;-73
2022/01/26 09:57:45;;;;;;;41.43;22.60;;;0.40;99.90;;;;;;5053353;28;20535;-73
2022/01/26 10:00:13;;;;;;;38.67;21.57;;;0.30;99.90;;;;;;5053797;28;20203;-73
2022/01/26 10:02:44;;;;;;;38.87;23.03;;;0.50;99.90;;;;;;5052726;28;20171;-73
2022/01/26 10:05:16;;;;;;;39.60;21.53;;;0.40;99.90;;;;;;5056423;28;20195;-73
2022/01/26 10:07:53;;;;;;;39.27;21.63;;;0.20;99.90;;;;;;5054618;28;20253;-73
2022/01/26 10:15:44;;;;;;;46.57;23.10;;;0.30;99.90;;;;;;5057300;28;20207;-74
2022/01/26 10:18:14;;;;;;;39.27;22.07;;;0.60;99.90;;;;;;5053325;28;20183;-72
2022/01/26 10:20:41;;;;;;;44.23;22.23;;;0.50;99.90;;;;;;5052676;28;20554;-73
2022/01/26 10:23:09;;;;;;;41.37;23.20;;;0.60;99.90;;;;;;5052502;28;20585;-72
2022/01/26 10:25:34;;;;;;;42.70;22.80;;;0.60;99.90;;;;;;5051900;28;20211;-73
2022/01/26 10:28:00;;;;;;;40.50;22.60;;;0.70;82.70;;;;;;5052186;28;20222;-73
2022/01/26 10:30:26;;;;;;;38.70;21.37;;;0.70;99.90;;;;;;5051847;28;20325;-73
2022/01/26 10:32:51;;;;;;;42.17;23.27;;;0.90;93.50;;;;;;5051619;28;20209;-72
2022/01/26 10:35:17;;;;;;;45.93;25.27;;;0.40;28.10;;;;;;5051528;28;20573;-72
2022/01/26 10:37:55;;;;;;;43.73;24.10;;;0.30;99.90;;;;;;5052340;28;20198;-72
2022/01/26 10:40:24;;;;;;;43.70;22.63;;;0.30;99.90;;;;;;5052052;28;20174;-72
2022/01/26 10:43:06;;;;;;;47.00;25.20;;;0.00;99.90;;;;;;5051188;28;20167;-72
2022/01/26 10:48:37;;;;;;;43.43;24.17;;;0.20;99.90;;;;;;5052202;28;20582;-72
2022/01/26 10:51:32;;;;;;;44.37;24.20;;;0.30;99.90;;;;;;5052217;28;20190;-73
2022/01/26 10:54:10;;;;;;;40.40;23.80;;;0.40;99.90;;;;;;5051983;28;20179;-72
2022/01/26 10:56:36;;;;;;;38.47;23.03;;;0.90;99.90;;;;;;5051533;28;20195;-73
2022/01/26 10:59:02;;;;;;;42.30;24.57;;;0.80;1.00;;;;;;5051979;28;20183;-72
2022/01/26 11:01:27;;;;;;;45.77;25.40;;;1.00;28.10;;;;;;5051746;28;20174;-72
2022/01/26 11:03:53;;;;;;;39.33;22.77;;;1.10;32.50;;;;;;5052025;28;20575;-72
2022/01/26 11:06:19;;;;;;;43.93;24.37;;;1.10;1.00;;;;;;5051284;28;20191;-72
2022/01/26 11:08:46;;;;;;;45.30;24.47;;;1.20;1.00;;;;;;5052460;28;20179;-71
2022/01/26 11:11:20;;;;;;;41.57;23.93;;;1.00;1.00;;;;;;5052035;28;20175;-72
2022/01/26 11:13:45;;;;;;;37.67;22.60;;;0.70;1.00;;;;;;5051999;28;20193;-72
2022/01/26 11:16:16;;;;;;;42.07;23.90;;;0.90;1.00;;;;;;5051442;28;20195;-73
2022/01/26 11:18:53;;;;;;;41.03;23.67;;;1.10;1.00;;;;;;5051538;28;20189;-73
2022/01/26 11:21:34;;;;;;;44.50;24.50;;;0.90;73.00;;;;;;5051040;28;20206;-72
2022/01/26 11:24:06;;;;;;;42.40;24.07;;;1.10;46.10;;;;;;5031901;28;20184;-72
2022/01/26 11:26:32;;;;;;;43.23;24.13;;;1.10;19.40;;;;;;5030892;28;20305;-72
2022/01/26 11:28:58;;;;;;;40.40;23.53;;;1.50;1.00;;;;;;5031760;28;20200;-71
2022/01/26 11:31:24;;;;;;;41.73;23.77;;;1.30;1.00;;;;;;5031958;28;20180;-72
2022/01/26 11:33:50;;;;;;;45.07;24.97;;;1.10;1.00;;;;;;5036417;28;20179;-72
2022/01/26 11:36:18;;;;;;;44.60;24.93;;;1.20;1.00;;;;;;5050555;28;20206;-73
2022/01/26 11:47:02;;;;;;;61.53;37.43;;;0.60;97.40;;;;;;5050613;28;20218;-73
2022/01/26 11:49:36;;;;;;;44.90;24.60;;;0.70;13.30;;;;;;5050759;28;20251;-72
2022/01/26 11:52:02;;;;;;;42.77;23.60;;;0.50;38.80;;;;;;5051589;28;20190;-73
2022/01/26 11:54:48;;;;;;;42.50;23.03;;;0.70;48.90;;;;;;5050855;28;20267;-72
2022/01/26 11:57:16;;;;;;;47.80;24.43;;;0.50;99.90;;;;;;5051429;28;20171;-73
2022/01/26 11:59:50;;;;;;;41.40;23.50;;;0.40;99.90;;;;;;5051146;28;20266;-73
2022/01/26 12:02:29;;;;;;;47.80;24.67;;;0.60;99.90;;;;;;5051125;28;20668;-72
2022/01/26 12:05:06;;;;;;;45.47;25.13;;;0.80;99.90;;;;;;5050777;28;20219;-73
2022/01/26 12:07:32;;;;;;;40.03;22.40;;;0.70;69.10;;;;;;5050981;28;20879;-73
2022/01/26 12:09:57;;;;;;;46.73;23.87;;;0.60;99.90;;;;;;5051163;28;20181;-72
2022/01/26 12:12:24;;;;;;;45.77;23.20;;;0.70;99.90;;;;;;5051090;28;20532;-72
2022/01/26 12:15:11;;;;;;;47.13;23.87;;;0.70;99.90;;;;;;5050772;28;20266;-73
2022/01/26 12:17:56;;;;;;;42.47;22.97;;;0.70;99.90;;;;;;5052210;28;20597;-73
2022/01/26 12:37:03;;;;;;;41.83;22.13;;;0.80;86.60;;;;;;5054683;28;20194;-71
2022/01/26 12:42:40;;;;;;;45.63;22.27;;;0.40;99.90;;;;;;5054418;28;20262;-71
2022/01/26 12:45:06;;;;;;;45.87;21.80;;;0.30;99.90;;;;;;5053771;28;20663;-71
2022/01/26 12:47:32;;;;;;;51.63;23.73;;;0.60;99.90;;;;;;5054562;28;20223;-72
2022/01/26 12:49:58;;;;;;;50.97;25.47;;;0.90;99.90;;;;;;5054483;28;20228;-71
2022/01/26 12:52:25;;;;;;;57.47;27.17;;;1.00;99.90;;;;;;5054384;28;20190;-72
2022/01/26 12:54:51;;;;;;;53.27;25.67;;;1.00;99.90;;;;;;5053832;28;20269;-72
2022/01/26 12:57:17;;;;;;;54.23;25.80;;;1.10;99.90;;;;;;5054226;28;20262;-72
2022/01/26 12:59:43;;;;;;;54.27;25.47;;;1.10;99.90;;;;;;5053904;28;20581;-72
2022/01/26 13:02:10;;;;;;;58.33;27.33;;;1.20;99.90;;;;;;5053856;28;20175;-72
2022/01/26 13:04:36;;;;;;;51.50;26.00;;;1.20;99.90;;;;;;5053884;28;20244;-72
2022/01/26 13:07:03;;;;;;;55.83;25.73;;;1.10;99.90;;;;;;5053289;28;20582;-72
2022/01/26 13:09:39;;;;;;;57.23;26.03;;;1.10;99.90;;;;;;5053324;28;20234;-72
2022/01/26 13:12:05;;;;;;;57.27;25.00;;;1.10;99.90;;;;;;5054013;28;20167;-72
2022/01/26 13:14:49;;;;;;;59.57;27.27;;;1.10;99.90;;;;;;5052943;28;20229;-73
2022/01/26 13:20:34;;;;;;;50.40;24.03;;;1.20;99.90;;;;;;5051413;28;20254;-72
2022/01/26 13:23:19;;;;;;;51.87;23.63;;;1.20;99.90;;;;;;5051853;28;20549;-73
2022/01/26 13:26:12;;;;;;;51.23;24.27;;;1.00;99.90;;;;;;5052260;28;20226;-74
2022/01/26 13:36:37;;;;;;;53.63;24.27;;;1.10;99.90;;;;;;5052587;28;20191;-74
2022/01/26 13:39:19;;;;;;;50.33;24.07;;;0.90;99.90;;;;;;5050544;28;20179;-74
2022/01/26 13:42:09;;;;;;;48.60;22.67;;;1.00;99.90;;;;;;5053186;28;20179;-74
2022/01/26 13:44:51;;;;;;;49.13;21.83;;;0.70;99.90;;;;;;5052567;28;20568;-74
2022/01/26 13:50:10;;;;;;;46.17;21.63;;;0.60;99.90;;;;;;5053020;28;20174;-74
2022/01/26 13:52:50;;;;;;;47.23;21.73;;;0.60;99.90;;;;;;5053282;28;20175;-74
2022/01/26 14:00:39;;;;;;;42.60;21.63;;;0.60;99.90;;;;;;5053201;28;20182;-74
2022/01/26 14:03:07;;;;;;;45.20;21.57;;;0.60;99.90;;;;;;5052791;28;20514;-75
2022/01/26 14:05:33;;;;;;;49.17;21.07;;;0.80;99.90;;;;;;5052395;28;20199;-74
2022/01/26 14:07:58;;;;;;;45.80;21.27;;;0.90;99.90;;;;;;5052832;28;20218;-73
2022/01/26 14:10:24;;;;;;;45.40;21.97;;;0.70;99.90;;;;;;5052851;28;20217;-74
2022/01/26 14:12:50;;;;;;;37.00;19.43;;;0.60;99.90;;;;;;5052694;28;20172;-74
2022/01/26 14:15:23;;;;;;;41.03;20.30;;;0.50;99.90;;;;;;5051978;28;20198;-74
2022/01/26 14:20:39;;;;;;;41.37;19.63;;;0.80;99.90;;;;;;5052428;28;20550;-74
2022/01/26 14:25:42;;;;;;;41.00;20.40;;;0.60;99.90;;;;;;5051236;28;20186;-74
2022/01/26 14:28:10;;;;;;;41.43;20.00;;;0.70;99.90;;;;;;5052154;28;20683;-74
2022/01/26 14:30:52;;;;;;;41.70;19.83;;;0.60;99.90;;;;;;5052385;28;20179;-74
2022/01/26 14:33:46;;;;;;;45.50;21.13;;;0.60;99.90;;;;;;5052334;28;20187;-73
2022/01/26 14:36:39;;;;;;;47.03;22.07;;;0.40;99.90;;;;;;5051759;28;20199;-74
2022/01/26 14:55:53;;;;;;;42.37;18.63;;;-0.20;99.90;;;;;;5051745;28;20285;-73
2022/01/26 15:09:48;;;;;;;35.80;17.47;;;-0.40;99.90;;;;;;5055372;28;20236;-75
2022/01/26 15:19:13;;;;;;;41.60;17.20;;;-0.40;99.90;;;;;;5051173;28;20182;-75
2022/01/26 15:33:48;;;;;;;36.10;17.07;;;-0.40;99.90;;;;;;5028296;28;20221;-74
2022/01/26 15:44:41;;;;;;;38.80;19.27;;;-0.50;99.90;;;;;;5051373;28;20695;-74
2022/01/26 15:49:58;;;;;;;39.33;18.47;;;-0.30;99.90;;;;;;5051677;28;20213;-75
2022/01/26 15:57:57;;;;;;;36.00;18.20;;;-0.30;99.90;;;;;;5055832;28;20198;-75
2022/01/26 16:19:44;;;;;;;36.67;17.90;;;0.00;99.90;;;;;;5016057;28;20260;-74
2022/01/26 16:37:57;;;;;;;34.13;17.07;;;0.20;99.90;;;;;;5039380;28;20176;-74
2022/01/26 17:21:16;;;;;;;30.30;16.23;;;0.00;99.90;;;;;;5034735;28;20713;-76
2022/01/26 18:13:06;;;;;;;41.33;19.60;;;-0.10;99.90;;;;;;5052608;28;20207;-75
2022/01/26 18:14:10;;;;;;;42.57;20.80;;;-0.20;99.90;;;;;;5052566;28;20187;-75
2022/01/26 18:32:16;;;;;;;44.90;21.63;;;0.00;99.90;;;;;;5049441;28;20181;-74
2022/01/26 18:40:39;;;;;;;37.63;18.43;;;-0.10;99.90;;;;;;5053571;28;20174;-74
2022/01/26 18:51:14;;;;;;;46.57;20.27;;;0.10;99.90;;;;;;5051625;28;20300;-75
2022/01/26 18:53:40;;;;;;;39.43;19.83;;;0.00;99.90;;;;;;5051849;28;20644;-74